sensor_id;sensor_type;location;lat;lon;timestamp;pressure;altitude;pressure_sealevel;temperature;humidity
33913;BME280;20200;52.084;5.224;2023-02-15T00:01:44;151032.0;;;8.98;54.66
33913;BME280;20200;52.084;5.224;2023-02-15T00:03:22;151000.0;;;8.85;54.86
33913;BME280;20200;52.084;5.224;2023-02-15T00:04:58;150976.0;;;8.75;55.21
33913;BME280;20200;52.084;5.224;2023-02-15T00:06:35;151016.0;;;8.91;54.9
33913;BME280;20200;52.084;5.224;2023-02-15T00:09:48;151005.0;;;8.88;55.19
33913;BME280;20200;52.084;5.224;2023-02-15T00:11:39;151139.0;;;9.41;53.44
33913;BME280;20200;52.084;5.224;2023-02-15T00:13:17;151169.0;;;9.52;53.26
33913;BME280;20200;52.084;5.224;2023-02-15T00:14:53;151143.0;;;9.42;53.25
33913;BME280;20200;52.084;5.224;2023-02-15T00:18:08;151069.0;;;9.14;53.92
33913;BME280;20200;52.084;5.224;2023-02-15T00:19:44;151171.0;;;9.53;53.05
33913;BME280;20200;52.084;5.224;2023-02-15T00:21:20;151217.0;;;9.73;52.27
33913;BME280;20200;52.084;5.224;2023-02-15T00:24:34;151191.0;;;9.61;52.61
33913;BME280;20200;52.084;5.224;2023-02-15T00:26:11;151190.0;;;9.61;52.62
33913;BME280;20200;52.084;5.224;2023-02-15T00:27:49;151210.0;;;9.69;52.36
33913;BME280;20200;52.084;5.224;2023-02-15T00:31:04;151099.0;;;9.24;53.14
33913;BME280;20200;52.084;5.224;2023-02-15T00:32:40;151061.0;;;9.09;53.54
33913;BME280;20200;52.084;5.224;2023-02-15T00:34:19;151017.0;;;8.92;53.96
33913;BME280;20200;52.084;5.224;2023-02-15T00:35:56;150977.0;;;8.76;54.1
33913;BME280;20200;52.084;5.224;2023-02-15T00:39:10;150948.0;;;8.64;54.53
33913;BME280;20200;52.084;5.224;2023-02-15T00:40:52;150932.0;;;8.58;54.56
33913;BME280;20200;52.084;5.224;2023-02-15T00:42:28;150936.0;;;8.59;54.61
33913;BME280;20200;52.084;5.224;2023-02-15T00:45:44;150905.0;;;8.48;54.86
33913;BME280;20200;52.084;5.224;2023-02-15T00:47:21;150899.0;;;8.44;55.29
33913;BME280;20200;52.084;5.224;2023-02-15T00:48:57;150972.0;;;8.74;54.67
33913;BME280;20200;52.084;5.224;2023-02-15T00:50:33;150974.0;;;8.74;54.67
33913;BME280;20200;52.084;5.224;2023-02-15T00:53:45;151007.0;;;8.89;54.21
33913;BME280;20200;52.084;5.224;2023-02-15T00:55:22;150954.0;;;8.66;54.87
33913;BME280;20200;52.084;5.224;2023-02-15T00:56:59;150951.0;;;8.65;55.03
33913;BME280;20200;52.084;5.224;2023-02-15T01:00:13;150925.0;;;8.56;55.08
33913;BME280;20200;52.084;5.224;2023-02-15T01:01:49;150923.0;;;8.55;55.03
33913;BME280;20200;52.084;5.224;2023-02-15T01:03:25;150934.0;;;8.59;55.08
33913;BME280;20200;52.084;5.224;2023-02-15T01:05:01;150914.0;;;8.51;55.29
33913;BME280;20200;52.084;5.224;2023-02-15T01:08:14;150924.0;;;8.56;55.07
33913;BME280;20200;52.084;5.224;2023-02-15T01:09:51;150931.0;;;8.57;54.74
33913;BME280;20200;52.084;5.224;2023-02-15T01:11:27;150925.0;;;8.56;54.68
33913;BME280;20200;52.084;5.224;2023-02-15T01:14:40;150934.0;;;8.59;54.56
33913;BME280;20200;52.084;5.224;2023-02-15T01:16:16;150898.0;;;8.44;55.03
33913;BME280;20200;52.084;5.224;2023-02-15T01:17:54;150865.0;;;8.31;55.11
33913;BME280;20200;52.084;5.224;2023-02-15T01:21:10;150830.0;;;8.17;55.25
33913;BME280;20200;52.084;5.224;2023-02-15T01:22:50;150819.0;;;8.14;55.56
33913;BME280;20200;52.084;5.224;2023-02-15T01:24:26;150844.0;;;8.23;55.25
33913;BME280;20200;52.084;5.224;2023-02-15T01:26:02;150900.0;;;8.45;54.67
33913;BME280;20200;52.084;5.224;2023-02-15T01:29:15;150925.0;;;8.56;54.3
33913;BME280;20200;52.084;5.224;2023-02-15T01:30:51;150927.0;;;8.56;54.63
33913;BME280;20200;52.084;5.224;2023-02-15T01:32:28;151028.0;;;8.97;53.78
33913;BME280;20200;52.084;5.224;2023-02-15T01:35:40;151023.0;;;8.94;53.72
33913;BME280;20200;52.084;5.224;2023-02-15T01:37:16;150961.0;;;8.69;54.42
33913;BME280;20200;52.084;5.224;2023-02-15T01:38:52;150978.0;;;8.76;53.78
33913;BME280;20200;52.084;5.224;2023-02-15T01:42:08;150918.0;;;8.52;54.0
33913;BME280;20200;52.084;5.224;2023-02-15T01:43:47;150867.0;;;8.32;54.29
33913;BME280;20200;52.084;5.224;2023-02-15T01:45:27;150815.0;;;8.11;54.84
33913;BME280;20200;52.084;5.224;2023-02-15T01:47:04;150846.0;;;8.23;54.56
33913;BME280;20200;52.084;5.224;2023-02-15T01:50:27;150846.0;;;8.23;54.47
33913;BME280;20200;52.084;5.224;2023-02-15T01:52:05;150814.0;;;8.11;55.07
33913;BME280;20200;52.084;5.224;2023-02-15T01:53:45;150828.0;;;8.16;55.32
33913;BME280;20200;52.084;5.224;2023-02-15T01:55:30;150820.0;;;8.14;55.34
33913;BME280;20200;52.084;5.224;2023-02-15T01:58:54;150820.0;;;8.14;55.25
33913;BME280;20200;52.084;5.224;2023-02-15T02:00:32;150834.0;;;8.19;54.97
33913;BME280;20200;52.084;5.224;2023-02-15T02:02:11;150816.0;;;8.13;55.28
33913;BME280;20200;52.084;5.224;2023-02-15T02:03:55;150811.0;;;8.09;55.41
33913;BME280;20200;52.084;5.224;2023-02-15T02:07:12;150790.0;;;8.01;55.73
33913;BME280;20200;52.084;5.224;2023-02-15T02:08:51;150863.0;;;8.31;55.0
33913;BME280;20200;52.084;5.224;2023-02-15T02:10:28;150897.0;;;8.44;54.7
33913;BME280;20200;52.084;5.224;2023-02-15T02:12:04;150953.0;;;8.66;54.23
33913;BME280;20200;52.084;5.224;2023-02-15T02:15:23;150997.0;;;8.84;53.63
33913;BME280;20200;52.084;5.224;2023-02-15T02:17:09;150991.0;;;8.81;53.58
33913;BME280;20200;52.084;5.224;2023-02-15T02:19:01;151099.0;;;9.24;52.95
33913;BME280;20200;52.084;5.224;2023-02-15T02:21:01;151151.0;;;9.46;52.5
33913;BME280;20200;52.084;5.224;2023-02-15T02:23:23;151130.0;;;9.38;52.74
33913;BME280;20200;52.084;5.224;2023-02-15T02:25:59;151072.0;;;9.14;53.77
33913;BME280;20200;52.084;5.224;2023-02-15T02:29:30;151049.0;;;9.05;54.35
33913;BME280;20200;52.084;5.224;2023-02-15T02:34:01;151041.0;;;9.01;54.2
33913;BME280;20200;52.084;5.224;2023-02-15T02:35:45;150960.0;;;8.69;55.42
33913;BME280;20200;52.084;5.224;2023-02-15T02:37:30;150961.0;;;8.69;55.42
33913;BME280;20200;52.084;5.224;2023-02-15T02:39:21;151009.0;;;8.89;54.83
33913;BME280;20200;52.084;5.224;2023-02-15T02:42:59;151032.0;;;8.98;54.16
33913;BME280;20200;52.084;5.224;2023-02-15T02:44:42;150979.0;;;8.76;54.9
33913;BME280;20200;52.084;5.224;2023-02-15T02:46:22;151034.0;;;8.98;54.34
33913;BME280;20200;52.084;5.224;2023-02-15T02:48:04;151113.0;;;9.31;53.31
33913;BME280;20200;52.084;5.224;2023-02-15T02:49:43;151166.0;;;9.51;52.79
33913;BME280;20200;52.084;5.224;2023-02-15T02:52:58;151089.0;;;9.21;53.54
33913;BME280;20200;52.084;5.224;2023-02-15T02:54:35;151093.0;;;9.23;53.43
33913;BME280;20200;52.084;5.224;2023-02-15T02:56:17;151018.0;;;8.92;54.68
33913;BME280;20200;52.084;5.224;2023-02-15T02:59:43;150990.0;;;8.81;55.13
33913;BME280;20200;52.084;5.224;2023-02-15T03:01:27;150992.0;;;8.82;55.18
33913;BME280;20200;52.084;5.224;2023-02-15T03:03:11;151086.0;;;9.19;54.12
33913;BME280;20200;52.084;5.224;2023-02-15T03:05:01;151011.0;;;8.89;54.93
33913;BME280;20200;52.084;5.224;2023-02-15T03:06:46;150993.0;;;8.82;55.36
33913;BME280;20200;52.084;5.224;2023-02-15T03:08:32;151016.0;;;8.91;55.31
33913;BME280;20200;52.084;5.224;2023-02-15T03:11:49;150955.0;;;8.67;55.3
33913;BME280;20200;52.084;5.224;2023-02-15T03:13:27;150930.0;;;8.57;55.58
33913;BME280;20200;52.084;5.224;2023-02-15T03:15:06;150899.0;;;8.45;55.63
33913;BME280;20200;52.084;5.224;2023-02-15T03:18:38;150886.0;;;8.4;55.6
33913;BME280;20200;52.084;5.224;2023-02-15T03:20:17;150906.0;;;8.48;55.12
33913;BME280;20200;52.084;5.224;2023-02-15T03:22:06;150899.0;;;8.44;55.22
33913;BME280;20200;52.084;5.224;2023-02-15T03:23:45;150979.0;;;8.76;54.72
33913;BME280;20200;52.084;5.224;2023-02-15T03:25:25;151093.0;;;9.23;53.48
33913;BME280;20200;52.084;5.224;2023-02-15T03:28:47;151114.0;;;9.31;53.15
33913;BME280;20200;52.084;5.224;2023-02-15T03:30:26;151147.0;;;9.44;52.94
33913;BME280;20200;52.084;5.224;2023-02-15T03:32:08;151095.0;;;9.23;53.6
33913;BME280;20200;52.084;5.224;2023-02-15T03:33:51;151021.0;;;8.93;55.16
33913;BME280;20200;52.084;5.224;2023-02-15T03:37:25;150986.0;;;8.8;55.71
33913;BME280;20200;52.084;5.224;2023-02-15T03:39:10;150930.0;;;8.57;56.11
33913;BME280;20200;52.084;5.224;2023-02-15T03:41:23;151007.0;;;8.89;55.21
33913;BME280;20200;52.084;5.224;2023-02-15T03:43:07;151051.0;;;9.06;54.71
33913;BME280;20200;52.084;5.224;2023-02-15T03:44:51;151052.0;;;9.06;54.5
33913;BME280;20200;52.084;5.224;2023-02-15T03:46:39;151075.0;;;9.15;54.39
33913;BME280;20200;52.084;5.224;2023-02-15T03:48:19;151110.0;;;9.3;54.04
33913;BME280;20200;52.084;5.224;2023-02-15T03:51:43;151055.0;;;9.07;54.53
33913;BME280;20200;52.084;5.224;2023-02-15T03:53:23;151079.0;;;9.17;54.05
33913;BME280;20200;52.084;5.224;2023-02-15T03:55:01;151119.0;;;9.32;54.12
33913;BME280;20200;52.084;5.224;2023-02-15T03:56:40;151051.0;;;9.06;55.25
33913;BME280;20200;52.084;5.224;2023-02-15T04:02:31;150958.0;;;8.68;56.85
33913;BME280;20200;52.084;5.224;2023-02-15T04:04:16;150932.0;;;8.58;57.33
33913;BME280;20200;52.084;5.224;2023-02-15T04:05:55;150965.0;;;8.72;57.0
33913;BME280;20200;52.084;5.224;2023-02-15T04:07:31;150945.0;;;8.64;57.22
33913;BME280;20200;52.084;5.224;2023-02-15T04:10:56;150983.0;;;8.78;56.79
33913;BME280;20200;52.084;5.224;2023-02-15T04:12:42;150981.0;;;8.77;56.93
33913;BME280;20200;52.084;5.224;2023-02-15T04:16:07;151009.0;;;8.89;56.7
33913;BME280;20200;52.084;5.224;2023-02-15T04:17:43;151102.0;;;9.26;55.7
33913;BME280;20200;52.084;5.224;2023-02-15T04:25:18;151093.0;;;9.23;55.23
33913;BME280;20200;52.084;5.224;2023-02-15T04:26:56;151105.0;;;9.27;54.97
33913;BME280;20200;52.084;5.224;2023-02-15T04:28:33;151104.0;;;9.26;54.97
33913;BME280;20200;52.084;5.224;2023-02-15T04:30:11;151075.0;;;9.15;55.2
33913;BME280;20200;52.084;5.224;2023-02-15T04:33:25;151043.0;;;9.02;55.27
33913;BME280;20200;52.084;5.224;2023-02-15T04:35:02;150992.0;;;8.82;55.79
33913;BME280;20200;52.084;5.224;2023-02-15T04:36:39;150990.0;;;8.81;55.73
33913;BME280;20200;52.084;5.224;2023-02-15T04:39:52;150921.0;;;8.53;57.01
33913;BME280;20200;52.084;5.224;2023-02-15T04:41:29;150925.0;;;8.56;57.12
33913;BME280;20200;52.084;5.224;2023-02-15T04:43:05;150928.0;;;8.56;57.28
33913;BME280;20200;52.084;5.224;2023-02-15T04:44:42;150873.0;;;8.34;57.81
33913;BME280;20200;52.084;5.224;2023-02-15T04:47:55;150864.0;;;8.31;57.82
33913;BME280;20200;52.084;5.224;2023-02-15T04:49:31;150837.0;;;8.2;58.52
33913;BME280;20200;52.084;5.224;2023-02-15T04:51:07;150843.0;;;8.23;58.51
33913;BME280;20200;52.084;5.224;2023-02-15T04:54:20;150897.0;;;8.44;57.99
33913;BME280;20200;52.084;5.224;2023-02-15T04:55:56;150844.0;;;8.23;58.36
33913;BME280;20200;52.084;5.224;2023-02-15T04:57:32;150828.0;;;8.16;58.8
33913;BME280;20200;52.084;5.224;2023-02-15T05:00:46;150853.0;;;8.26;58.48
33913;BME280;20200;52.084;5.224;2023-02-15T05:02:22;150821.0;;;8.14;59.1
33913;BME280;20200;52.084;5.224;2023-02-15T05:03:58;150816.0;;;8.11;58.99
33913;BME280;20200;52.084;5.224;2023-02-15T05:07:10;150841.0;;;8.22;58.95
33913;BME280;20200;52.084;5.224;2023-02-15T05:08:46;150867.0;;;8.32;58.27
33913;BME280;20200;52.084;5.224;2023-02-15T05:10:23;150895.0;;;8.43;57.98
33913;BME280;20200;52.084;5.224;2023-02-15T05:11:59;150818.0;;;8.13;59.08
33913;BME280;20200;52.084;5.224;2023-02-15T05:15:11;150806.0;;;8.07;59.38
33913;BME280;20200;52.084;5.224;2023-02-15T05:16:47;150843.0;;;8.23;58.93
33913;BME280;20200;52.084;5.224;2023-02-15T05:18:23;150845.0;;;8.23;58.71
33913;BME280;20200;52.084;5.224;2023-02-15T05:21:36;150904.0;;;8.47;58.16
33913;BME280;20200;52.084;5.224;2023-02-15T05:23:12;150863.0;;;8.31;58.44
33913;BME280;20200;52.084;5.224;2023-02-15T05:28:58;150848.0;;;8.24;58.17
33913;BME280;20200;52.084;5.224;2023-02-15T05:32:12;150906.0;;;8.48;57.45
33913;BME280;20200;52.084;5.224;2023-02-15T05:33:49;150874.0;;;8.35;57.36
33913;BME280;20200;52.084;5.224;2023-02-15T05:35:25;150939.0;;;8.61;56.83
33913;BME280;20200;52.084;5.224;2023-02-15T05:37:02;150917.0;;;8.52;56.86
33913;BME280;20200;52.084;5.224;2023-02-15T05:40:15;150846.0;;;8.23;57.92
33913;BME280;20200;52.084;5.224;2023-02-15T05:41:51;150895.0;;;8.43;57.22
33913;BME280;20200;52.084;5.224;2023-02-15T05:43:28;150890.0;;;8.41;57.2
33913;BME280;20200;52.084;5.224;2023-02-15T05:46:42;150855.0;;;8.27;57.64
33913;BME280;20200;52.084;5.224;2023-02-15T05:48:20;150835.0;;;8.19;58.01
33913;BME280;20200;52.084;5.224;2023-02-15T05:49:58;150758.0;;;7.88;59.0
33913;BME280;20200;52.084;5.224;2023-02-15T05:53:10;150775.0;;;7.95;59.04
33913;BME280;20200;52.084;5.224;2023-02-15T05:54:46;150746.0;;;7.83;59.4
33913;BME280;20200;52.084;5.224;2023-02-15T05:56:22;150729.0;;;7.76;59.68
33913;BME280;20200;52.084;5.224;2023-02-15T05:57:59;150755.0;;;7.87;59.25
33913;BME280;20200;52.084;5.224;2023-02-15T06:01:13;150761.0;;;7.89;59.24
33913;BME280;20200;52.084;5.224;2023-02-15T06:02:50;150730.0;;;7.77;59.73
33913;BME280;20200;52.084;5.224;2023-02-15T06:04:26;150728.0;;;7.76;59.69
33913;BME280;20200;52.084;5.224;2023-02-15T06:07:42;150750.0;;;7.85;59.37
33913;BME280;20200;52.084;5.224;2023-02-15T06:09:19;150772.0;;;7.94;59.03
33913;BME280;20200;52.084;5.224;2023-02-15T06:10:56;150764.0;;;7.91;59.03
33913;BME280;20200;52.084;5.224;2023-02-15T06:14:08;150741.0;;;7.82;59.36
33913;BME280;20200;52.084;5.224;2023-02-15T06:15:44;150734.0;;;7.79;59.34
33913;BME280;20200;52.084;5.224;2023-02-15T06:17:22;150627.0;;;7.36;60.8
33913;BME280;20200;52.084;5.224;2023-02-15T06:18:59;150704.0;;;7.67;59.59
33913;BME280;20200;52.084;5.224;2023-02-15T06:22:14;150723.0;;;7.74;59.64
33913;BME280;20200;52.084;5.224;2023-02-15T06:23:50;150718.0;;;7.72;59.8
33913;BME280;20200;52.084;5.224;2023-02-15T06:25:26;150729.0;;;7.76;59.56
33913;BME280;20200;52.084;5.224;2023-02-15T06:28:39;150718.0;;;7.72;59.79
33913;BME280;20200;52.084;5.224;2023-02-15T06:30:15;150702.0;;;7.66;60.02
33913;BME280;20200;52.084;5.224;2023-02-15T06:31:50;150701.0;;;7.65;59.97
33913;BME280;20200;52.084;5.224;2023-02-15T06:35:03;150694.0;;;7.62;60.15
33913;BME280;20200;52.084;5.224;2023-02-15T06:36:40;150734.0;;;7.79;59.5
33913;BME280;20200;52.084;5.224;2023-02-15T06:38:17;150714.0;;;7.71;59.74
33913;BME280;20200;52.084;5.224;2023-02-15T06:39:53;150664.0;;;7.5;60.38
33913;BME280;20200;52.084;5.224;2023-02-15T06:43:06;150693.0;;;7.62;59.98
33913;BME280;20200;52.084;5.224;2023-02-15T06:44:42;150681.0;;;7.57;60.02
33913;BME280;20200;52.084;5.224;2023-02-15T06:46:18;150659.0;;;7.48;60.38
33913;BME280;20200;52.084;5.224;2023-02-15T06:49:30;150664.0;;;7.5;60.3
33913;BME280;20200;52.084;5.224;2023-02-15T06:51:06;150667.0;;;7.52;60.09
33913;BME280;20200;52.084;5.224;2023-02-15T06:52:42;150687.0;;;7.6;59.84
33913;BME280;20200;52.084;5.224;2023-02-15T06:56:00;150695.0;;;7.63;59.66
33913;BME280;20200;52.084;5.224;2023-02-15T06:57:37;150680.0;;;7.57;59.85
33913;BME280;20200;52.084;5.224;2023-02-15T06:59:13;150667.0;;;7.52;59.87
33913;BME280;20200;52.084;5.224;2023-02-15T07:00:51;150668.0;;;7.52;59.87
33913;BME280;20200;52.084;5.224;2023-02-15T07:04:04;150632.0;;;7.38;60.23
33913;BME280;20200;52.084;5.224;2023-02-15T07:05:39;150645.0;;;7.43;60.22
33913;BME280;20200;52.084;5.224;2023-02-15T07:07:16;150629.0;;;7.37;60.57
33913;BME280;20200;52.084;5.224;2023-02-15T07:10:28;150623.0;;;7.34;60.61
33913;BME280;20200;52.084;5.224;2023-02-15T07:13:09;150650.0;;;7.45;60.22
33913;BME280;20200;52.084;5.224;2023-02-15T07:14:45;150559.0;;;7.09;61.43
33913;BME280;20200;52.084;5.224;2023-02-15T07:16:21;150573.0;;;7.14;61.48
33913;BME280;20200;52.084;5.224;2023-02-15T07:17:58;150562.0;;;7.1;61.75
33913;BME280;20200;52.084;5.224;2023-02-15T07:19:34;150585.0;;;7.19;61.49
33913;BME280;20200;52.084;5.224;2023-02-15T07:22:46;150598.0;;;7.24;61.16
33913;BME280;20200;52.084;5.224;2023-02-15T07:24:23;150646.0;;;7.43;60.54
33913;BME280;20200;52.084;5.224;2023-02-15T07:26:00;150645.0;;;7.43;60.72
33913;BME280;20200;52.084;5.224;2023-02-15T07:29:14;150659.0;;;7.49;60.26
33913;BME280;20200;52.084;5.224;2023-02-15T07:30:50;150703.0;;;7.66;59.88
33913;BME280;20200;52.084;5.224;2023-02-15T07:32:28;150669.0;;;7.53;60.12
33913;BME280;20200;52.084;5.224;2023-02-15T07:35:46;150645.0;;;7.43;60.44
33913;BME280;20200;52.084;5.224;2023-02-15T07:37:23;150579.0;;;7.17;61.45
33913;BME280;20200;52.084;5.224;2023-02-15T07:39:00;150618.0;;;7.32;61.02
33913;BME280;20200;52.084;5.224;2023-02-15T07:40:36;150628.0;;;7.36;61.19
33913;BME280;20200;52.084;5.224;2023-02-15T07:43:49;150610.0;;;7.29;61.33
33913;BME280;20200;52.084;5.224;2023-02-15T07:45:25;150623.0;;;7.34;61.38
33913;BME280;20200;52.084;5.224;2023-02-15T07:47:01;150623.0;;;7.34;61.5
33913;BME280;20200;52.084;5.224;2023-02-15T07:50:15;150631.0;;;7.38;61.19
33913;BME280;20200;52.084;5.224;2023-02-15T07:51:52;150641.0;;;7.41;61.31
33913;BME280;20200;52.084;5.224;2023-02-15T07:53:29;150618.0;;;7.32;61.57
33913;BME280;20200;52.084;5.224;2023-02-15T07:55:06;150617.0;;;7.32;61.61
33913;BME280;20200;52.084;5.224;2023-02-15T07:58:19;150621.0;;;7.33;61.45
33913;BME280;20200;52.084;5.224;2023-02-15T07:59:56;150634.0;;;7.39;61.66
33913;BME280;20200;52.084;5.224;2023-02-15T08:01:34;150699.0;;;7.64;60.88
33913;BME280;20200;52.084;5.224;2023-02-15T08:04:51;150660.0;;;7.49;61.31
33913;BME280;20200;52.084;5.224;2023-02-15T08:06:29;150765.0;;;7.91;60.39
33913;BME280;20200;52.084;5.224;2023-02-15T08:08:06;150765.0;;;7.91;60.12
33913;BME280;20200;52.084;5.224;2023-02-15T08:09:43;150797.0;;;8.05;59.99
33913;BME280;20200;52.084;5.224;2023-02-15T08:13:07;150778.0;;;7.96;60.15
33913;BME280;20200;52.084;5.224;2023-02-15T08:14:43;150697.0;;;7.64;61.15
33913;BME280;20200;52.084;5.224;2023-02-15T08:16:22;150758.0;;;7.88;60.77
33913;BME280;20200;52.084;5.224;2023-02-15T08:19:36;150695.0;;;7.63;61.32
33913;BME280;20200;52.084;5.224;2023-02-15T08:21:13;150663.0;;;7.5;62.22
33913;BME280;20200;52.084;5.224;2023-02-15T08:22:49;150712.0;;;7.7;61.86
33913;BME280;20200;52.084;5.224;2023-02-15T08:24:28;150687.0;;;7.6;61.54
33913;BME280;20200;52.084;5.224;2023-02-15T08:27:41;150769.0;;;7.92;61.29
33913;BME280;20200;52.084;5.224;2023-02-15T08:29:19;150694.0;;;7.63;61.74
33913;BME280;20200;52.084;5.224;2023-02-15T08:31:04;150738.0;;;7.8;61.09
33913;BME280;20200;52.084;5.224;2023-02-15T08:34:18;150748.0;;;7.84;61.43
33913;BME280;20200;52.084;5.224;2023-02-15T08:35:55;150821.0;;;8.14;60.63
33913;BME280;20200;52.084;5.224;2023-02-15T08:37:31;150835.0;;;8.19;60.49
33913;BME280;20200;52.084;5.224;2023-02-15T08:39:08;150793.0;;;8.02;60.72
33913;BME280;20200;52.084;5.224;2023-02-15T08:42:20;150780.0;;;7.97;60.95
33913;BME280;20200;52.084;5.224;2023-02-15T08:43:59;150801.0;;;8.06;61.08
33913;BME280;20200;52.084;5.224;2023-02-15T08:45:36;150883.0;;;8.39;60.09
33913;BME280;20200;52.084;5.224;2023-02-15T08:48:49;150804.0;;;8.06;61.05
33913;BME280;20200;52.084;5.224;2023-02-15T08:50:26;150799.0;;;8.05;60.87
33913;BME280;20200;52.084;5.224;2023-02-15T08:52:02;150833.0;;;8.18;60.68
33913;BME280;20200;52.084;5.224;2023-02-15T08:55:16;150885.0;;;8.39;60.26
33913;BME280;20200;52.084;5.224;2023-02-15T08:56:52;150885.0;;;8.39;60.33
33913;BME280;20200;52.084;5.224;2023-02-15T08:58:29;150902.0;;;8.47;60.12
33913;BME280;20200;52.084;5.224;2023-02-15T09:00:06;150881.0;;;8.38;60.66
33913;BME280;20200;52.084;5.224;2023-02-15T09:03:20;150956.0;;;8.68;59.67
33913;BME280;20200;52.084;5.224;2023-02-15T09:04:56;150943.0;;;8.63;59.77
33913;BME280;20200;52.084;5.224;2023-02-15T09:06:32;150927.0;;;8.56;59.96
33913;BME280;20200;52.084;5.224;2023-02-15T09:09:45;150982.0;;;8.78;59.55
33913;BME280;20200;52.084;5.224;2023-02-15T09:11:24;150913.0;;;8.5;60.08
33913;BME280;20200;52.084;5.224;2023-02-15T09:13:01;151010.0;;;8.89;59.04
33913;BME280;20200;52.084;5.224;2023-02-15T09:14:38;150962.0;;;8.71;59.74
33913;BME280;20200;52.084;5.224;2023-02-15T09:17:53;150926.0;;;8.56;59.85
33913;BME280;20200;52.084;5.224;2023-02-15T09:19:29;150963.0;;;8.71;59.83
33913;BME280;20200;52.084;5.224;2023-02-15T09:21:08;151005.0;;;8.88;59.6
33913;BME280;20200;52.084;5.224;2023-02-15T09:24:21;151068.0;;;9.13;59.14
33913;BME280;20200;52.084;5.224;2023-02-15T09:26:02;151139.0;;;9.4;58.32
33913;BME280;20200;52.084;5.224;2023-02-15T09:27:39;151192.0;;;9.63;57.67
33913;BME280;20200;52.084;5.224;2023-02-15T09:29:16;151158.0;;;9.48;58.12
33913;BME280;20200;52.084;5.224;2023-02-15T09:32:29;151269.0;;;9.92;57.16
33913;BME280;20200;52.084;5.224;2023-02-15T09:34:05;151151.0;;;9.46;58.08
33913;BME280;20200;52.084;5.224;2023-02-15T09:35:41;151241.0;;;9.81;57.51
33913;BME280;20200;52.084;5.224;2023-02-15T09:38:55;151234.0;;;9.78;57.69
33913;BME280;20200;52.084;5.224;2023-02-15T09:40:39;151244.0;;;9.83;57.74
33913;BME280;20200;52.084;5.224;2023-02-15T09:45:20;151291.0;;;10.01;56.8
33913;BME280;20200;52.084;5.224;2023-02-15T09:47:32;151350.0;;;10.25;56.32
33913;BME280;20200;52.084;5.224;2023-02-15T09:49:21;151318.0;;;10.13;56.49
33913;BME280;20200;52.084;5.224;2023-02-15T09:51:15;151380.0;;;10.37;56.0
33913;BME280;20200;52.084;5.224;2023-02-15T09:53:12;151363.0;;;10.3;56.22
33913;BME280;20200;52.084;5.224;2023-02-15T09:55:06;151329.0;;;10.16;56.56
33913;BME280;20200;52.084;5.224;2023-02-15T09:56:53;151426.0;;;10.55;55.68
33913;BME280;20200;52.084;5.224;2023-02-15T09:58:40;151346.0;;;10.23;56.32
33913;BME280;20200;52.084;5.224;2023-02-15T10:02:23;151455.0;;;10.66;55.53
33913;BME280;20200;52.084;5.224;2023-02-15T10:04:20;151371.0;;;10.33;55.62
33913;BME280;20200;52.084;5.224;2023-02-15T10:06:16;151394.0;;;10.42;55.39
33913;BME280;20200;52.084;5.224;2023-02-15T10:08:14;151408.0;;;10.48;56.0
33913;BME280;20200;52.084;5.224;2023-02-15T10:10:33;151415.0;;;10.51;55.74
33913;BME280;20200;52.084;5.224;2023-02-15T10:12:31;151414.0;;;10.5;55.62
33913;BME280;20200;52.084;5.224;2023-02-15T10:14:22;151451.0;;;10.65;55.75
33913;BME280;20200;52.084;5.224;2023-02-15T10:16:19;151545.0;;;11.03;54.89
33913;BME280;20200;52.084;5.224;2023-02-15T10:18:25;151433.0;;;10.58;55.34
33913;BME280;20200;52.084;5.224;2023-02-15T10:20:56;151539.0;;;11.0;55.03
33913;BME280;20200;52.084;5.224;2023-02-15T10:22:42;151505.0;;;10.87;55.07
33913;BME280;20200;52.084;5.224;2023-02-15T10:24:39;151584.0;;;11.18;54.48
33913;BME280;20200;52.084;5.224;2023-02-15T10:26:42;151625.0;;;11.34;54.41
33913;BME280;20200;52.084;5.224;2023-02-15T10:28:23;151596.0;;;11.23;54.19
33913;BME280;20200;52.084;5.224;2023-02-15T10:30:09;151611.0;;;11.29;54.32
33913;BME280;20200;52.084;5.224;2023-02-15T10:33:38;151621.0;;;11.33;53.9
33913;BME280;20200;52.084;5.224;2023-02-15T10:35:20;151658.0;;;11.48;53.38
33913;BME280;20200;52.084;5.224;2023-02-15T10:37:12;151806.0;;;12.06;52.35
33913;BME280;20200;52.084;5.224;2023-02-15T10:40:00;151727.0;;;11.75;52.48
33913;BME280;20200;52.084;5.224;2023-02-15T10:41:47;151752.0;;;11.85;53.07
33913;BME280;20200;52.084;5.224;2023-02-15T10:43:41;151939.0;;;12.59;51.67
33913;BME280;20200;52.084;5.224;2023-02-15T10:45:31;151821.0;;;12.12;51.81
33913;BME280;20200;52.084;5.224;2023-02-15T10:47:24;151859.0;;;12.28;51.74
33913;BME280;20200;52.084;5.224;2023-02-15T10:49:28;151920.0;;;12.52;51.37
33913;BME280;20200;52.084;5.224;2023-02-15T10:51:53;151877.0;;;12.35;51.66
33913;BME280;20200;52.084;5.224;2023-02-15T10:53:49;151911.0;;;12.48;51.67
33913;BME280;20200;52.084;5.224;2023-02-15T10:56:04;152040.0;;;13.0;50.46
33913;BME280;20200;52.084;5.224;2023-02-15T10:57:51;152010.0;;;12.88;50.61
33913;BME280;20200;52.084;5.224;2023-02-15T10:59:57;151995.0;;;12.82;50.69
33913;BME280;20200;52.084;5.224;2023-02-15T11:01:45;152065.0;;;13.09;50.03
33913;BME280;20200;52.084;5.224;2023-02-15T11:03:36;152039.0;;;12.99;50.55
33913;BME280;20200;52.084;5.224;2023-02-15T11:07:16;152006.0;;;12.86;50.83
33913;BME280;20200;52.084;5.224;2023-02-15T11:08:57;152074.0;;;13.13;50.6
33913;BME280;20200;52.084;5.224;2023-02-15T11:10:39;152029.0;;;12.95;50.63
33913;BME280;20200;52.084;5.224;2023-02-15T11:12:23;152126.0;;;13.34;49.92
33913;BME280;20200;52.084;5.224;2023-02-15T11:14:05;152120.0;;;13.32;50.07
33913;BME280;20200;52.084;5.224;2023-02-15T11:17:35;152079.0;;;13.15;50.16
33913;BME280;20200;52.084;5.224;2023-02-15T11:19:18;152066.0;;;13.1;49.91
33913;BME280;20200;52.084;5.224;2023-02-15T11:21:01;152135.0;;;13.37;49.43
33913;BME280;20200;52.084;5.224;2023-02-15T11:22:40;152217.0;;;13.7;48.97
33913;BME280;20200;52.084;5.224;2023-02-15T11:25:59;152239.0;;;13.79;48.94
33913;BME280;20200;52.084;5.224;2023-02-15T11:27:38;152170.0;;;13.51;49.38
33913;BME280;20200;52.084;5.224;2023-02-15T11:29:21;152237.0;;;13.78;48.63
33913;BME280;20200;52.084;5.224;2023-02-15T11:31:04;152300.0;;;14.03;48.53